Triumph V — WDC8297 — position and weather

sailwx.info

Track history (hours):
 
Tides and Currents Weather Stations Pressure Air Temp Water Temp Dewpoint Dewpoint Depression Visibility Wind Speed Wind Dir Waves Ship Positions

Triumph V

Owner: Anchorage Launch Service Co, Portland, OR. More information available from US FCC via Universal Licensing System and Coast Guard Vessel Documentation Center.

Last reported at 2018-Feb-25 03:27 UTC. Time now 2018-Feb-25 03:41 UTC.
Position N 46°00' W 122°51'.

Length 30 m.

MMSI: 367084780.

Date/timePositionNaut miles runAvg speedWind from/ knotsBaromVisibWave heightAir tempDewpointWater temp
2018-Feb-25 03:27N 46°00' W 122°51'0 0.0
2018-Feb-25 03:00N 46°00' W 122°51'0 0.0
2018-Feb-25 02:27N 46°00' W 122°51'0 0.0
2018-Feb-25 02:00N 46°00' W 122°51'0 0.0
2018-Feb-25 01:24N 46°00' W 122°51'0 1.0
2018-Feb-25 01:00N 46°01' W 122°51'0 0.6
2018-Feb-25 00:30N 46°01' W 122°51'1 2.4
2018-Feb-24 23:59N 46°02' W 122°52'0 0.0
2018-Feb-24 22:50N 46°02' W 122°52'0 0.0
2018-Feb-24 22:28N 46°02' W 122°52'1 1.7
2018-Feb-24 21:40N 46°00' W 122°51'0 0.0
2018-Feb-24 21:28N 46°00' W 122°51'0 0.0
2018-Feb-24 20:55N 46°00' W 122°51'0 0.0
2018-Feb-24 20:25N 46°00' W 122°51'0 0.0
2018-Feb-24 19:52N 46°00' W 122°51'0 0.0
2018-Feb-24 19:25N 46°00' W 122°51'0 0.0
2018-Feb-24 18:52N 46°00' W 122°51'0 0.0
2018-Feb-24 18:28N 46°00' W 122°51'0 0.0
2018-Feb-24 17:58N 46°00' W 122°51'0 0.0
2018-Feb-24 17:25N 46°00' W 122°51'0 0.0
2018-Feb-24 16:58N 46°00' W 122°51'0 0.0
2018-Feb-24 16:28N 46°00' W 122°51'0 0.0
2018-Feb-24 15:22N 46°00' W 122°51'0 0.0
2018-Feb-24 14:49N 46°00' W 122°51'0 0.0
2018-Feb-24 14:28N 46°00' W 122°51'0 0.0
2018-Feb-24 13:55N 46°00' W 122°51'3 7.0
2018-Feb-24 13:30N 46°03' W 122°53'1 1.6
2018-Feb-24 12:35N 46°04' W 122°54'0 0.5
2018-Feb-24 12:30N 46°04' W 122°54'4 7.6
2018-Feb-24 12:00N 46°01' W 122°51'1 1.1
2018-Feb-24 11:29N 46°00' W 122°51'0 0.0
2018-Feb-24 10:41N 46°00' W 122°51'0 0.0
2018-Feb-24 10:11N 46°00' W 122°51'0 0.0
2018-Feb-24 09:56N 46°00' W 122°51'0 0.0
2018-Feb-24 09:29N 46°00' W 122°51'0 0.0
2018-Feb-24 08:59N 46°00' W 122°51'0 0.0
2018-Feb-24 08:29N 46°00' W 122°51'0 0.0
2018-Feb-24 07:53N 46°00' W 122°51'0 0.0
2018-Feb-24 07:29N 46°00' W 122°51'0 0.0
2018-Feb-24 06:59N 46°00' W 122°51'0 0.0
2018-Feb-24 06:23N 46°00' W 122°51'0 0.3
2018-Feb-24 06:00N 46°01' W 122°51'0 0.3
2018-Feb-24 05:30N 46°00' W 122°51'0 0.0
2018-Feb-24 04:57N 46°00' W 122°51'0 0.0
2018-Feb-24 04:30N 46°00' W 122°51'0 0.0
2018-Feb-24 03:54N 46°00' W 122°51'0 0.0
2018-Feb-24 03:27N 46°00' W 122°51'0 0.0
2018-Feb-24 03:00N 46°00' W 122°51'0 0.0
2018-Feb-24 02:30N 46°00' W 122°51'0 0.0
2018-Feb-24 02:00N 46°00' W 122°51'0 0.0
2018-Feb-24 00:39N 46°00' W 122°51'0 0.0
2018-Feb-24 00:27N 46°00' W 122°51'0 0.0
2018-Feb-23 23:51N 46°00' W 122°51'0 0.0
2018-Feb-23 23:27N 46°00' W 122°51'0 0.0
2018-Feb-23 22:39N 46°00' W 122°51'0 0.0
2018-Feb-23 22:30N 46°00' W 122°51'0 0.0
2018-Feb-23 22:00N 46°00' W 122°51'0 0.0
2018-Feb-23 21:21N 46°00' W 122°51'0 0.0
2018-Feb-23 21:00N 46°00' W 122°51'0 0.1
2018-Feb-23 20:01N 46°01' W 122°51'0 0.0
2018-Feb-23 19:58N 46°01' W 122°51'0 0.6
2018-Feb-23 19:27N 46°01' W 122°51'0 0.1
2018-Feb-23 19:00N 46°01' W 122°51'0 0.7
2018-Feb-23 18:30N 46°01' W 122°51'0 0.0
2018-Feb-23 17:58N 46°01' W 122°51'1 1.3
2018-Feb-23 17:30N 46°01' W 122°52'1 1.2
2018-Feb-23 16:59N 46°01' W 122°51'0 0.0
2018-Feb-23 16:28N 46°01' W 122°51'0 0.2
2018-Feb-23 15:56N 46°00' W 122°51'0 0.0
2018-Feb-23 15:29N 46°00' W 122°51'0 0.0
2018-Feb-23 14:59N 46°00' W 122°51'0 0.0
2018-Feb-23 14:29N 46°00' W 122°51'0 0.0
2018-Feb-23 13:59N 46°00' W 122°51'0 0.0
2018-Feb-23 13:29N 46°00' W 122°51'0 0.0
2018-Feb-23 12:59N 46°00' W 122°51'0 0.0
2018-Feb-23 12:29N 46°00' W 122°51'0 0.0
2018-Feb-23 11:59N 46°00' W 122°51'0 0.0
2018-Feb-23 11:23N 46°00' W 122°51'0 0.0
2018-Feb-23 10:05N 46°00' W 122°51'0 0.0
2018-Feb-23 09:59N 46°00' W 122°51'1 1.8
2018-Feb-23 09:14N 46°02' W 122°52'0 0.0
2018-Feb-23 08:56N 46°02' W 122°52'0 0.0
2018-Feb-23 08:20N 46°02' W 122°52'0 0.0
2018-Feb-23 07:56N 46°02' W 122°52'1 1.6
2018-Feb-23 07:04N 46°00' W 122°51'0 0.0
2018-Feb-23 06:55N 46°00' W 122°51'0 0.0
2018-Feb-23 06:22N 46°00' W 122°51'0 0.0
2018-Feb-23 05:58N 46°00' W 122°51'0 0.0
2018-Feb-23 05:28N 46°00' W 122°51'0 0.0
2018-Feb-23 04:58N 46°00' W 122°51'0 0.0
2018-Feb-23 04:25N 46°00' W 122°51'0 0.0
2018-Feb-23 03:52N 46°00' W 122°51'0 0.0
2018-Feb-23 03:25N 46°00' W 122°51'0 0.0
2018-Feb-23 02:58N 46°00' W 122°51'0 0.0
2018-Feb-23 02:22N 46°00' W 122°51'0 0.0
2018-Feb-23 01:40N 46°00' W 122°51'0 0.0
2018-Feb-23 01:13N 46°00' W 122°51'0 0.0
2018-Feb-23 00:58N 46°00' W 122°51'0 0.0
2018-Feb-23 00:28N 46°00' W 122°51'0 0.0
2018-Feb-22 23:52N 46°00' W 122°51'0 0.0
2018-Feb-22 23:19N 46°00' W 122°51'0 0.0
2018-Feb-22 22:55N 46°00' W 122°51'0 0.0
2018-Feb-22 22:25N 46°00' W 122°51'0 0.0
2018-Feb-22 21:58N 46°00' W 122°51'0 0.0
2018-Feb-22 21:22N 46°00' W 122°51'0 0.0
2018-Feb-22 20:58N 46°00' W 122°51'0 0.0
2018-Feb-22 19:43N 46°00' W 122°51'0 0.0
2018-Feb-22 19:22N 46°00' W 122°51'0 0.0
2018-Feb-22 18:31N 46°00' W 122°51'0 0.0
2018-Feb-22 18:28N 46°00' W 122°51'0 0.0
2018-Feb-22 17:58N 46°00' W 122°51'0 0.0
2018-Feb-22 17:28N 46°00' W 122°51'0 0.0
2018-Feb-22 16:58N 46°00' W 122°51'0 0.0
2018-Feb-22 16:28N 46°00' W 122°51'2 3.8
2018-Feb-22 16:00N 46°02' W 122°52'815.4
2018-Feb-22 15:30N 46°08' W 122°60'0 0.3
2018-Feb-22 14:57N 46°08' W 122°59'0 0.0
2018-Feb-22 14:27N 46°08' W 122°59'0 0.1
2018-Feb-22 13:55N 46°08' W 122°59'0 0.0
2018-Feb-22 13:28N 46°08' W 122°59'613.7
2018-Feb-22 13:00N 46°03' W 122°53'3 4.8
2018-Feb-22 12:22N 46°00' W 122°51'0 0.0
2018-Feb-22 11:55N 46°00' W 122°51'0 0.0
2018-Feb-22 11:28N 46°00' W 122°51'0 0.0
2018-Feb-22 10:55N 46°00' W 122°51'0 0.0
2018-Feb-22 10:25N 46°00' W 122°51'0 0.0
2018-Feb-22 09:34N 46°00' W 122°51'0 0.0
2018-Feb-22 09:22N 46°00' W 122°51'0 0.0
2018-Feb-22 08:40N 46°00' W 122°51'0 0.0
2018-Feb-22 08:28N 46°00' W 122°51'0 0.0
2018-Feb-22 07:55N 46°00' W 122°51'0 0.0
2018-Feb-22 07:22N 46°00' W 122°51'0 0.0
2018-Feb-22 06:55N 46°00' W 122°51'0 0.0
2018-Feb-22 06:28N 46°00' W 122°51'0 0.0
2018-Feb-22 05:46N 46°00' W 122°51'0 0.0
2018-Feb-22 05:19N 46°00' W 122°51'0 0.0
2018-Feb-22 04:58N 46°00' W 122°51'0 0.0
2018-Feb-22 04:22N 46°00' W 122°51'0 0.0
2018-Feb-22 03:55N 46°00' W 122°51'0 0.0
2018-Feb-22 03:16N 46°00' W 122°51'0 0.0
2018-Feb-22 02:58N 46°00' W 122°51'0 0.0
2018-Feb-22 02:28N 46°00' W 122°51'0 0.0
2018-Feb-22 01:52N 46°00' W 122°51'0 0.0
2018-Feb-22 01:25N 46°00' W 122°51'0 0.0
2018-Feb-22 00:55N 46°00' W 122°51'0 0.0
2018-Feb-22 00:25N 46°00' W 122°51'0 0.0
2018-Feb-21 23:58N 46°00' W 122°51'0 0.0
2018-Feb-21 23:22N 46°00' W 122°51'0 0.0
2018-Feb-21 22:58N 46°00' W 122°51'0 0.0
2018-Feb-21 22:25N 46°00' W 122°51'0 0.0
2018-Feb-21 21:55N 46°00' W 122°51'0 0.0
2018-Feb-21 21:25N 46°00' W 122°51'0 0.0
2018-Feb-21 20:34N 46°00' W 122°51'0 0.0
2018-Feb-21 20:22N 46°00' W 122°51'0 0.0
2018-Feb-21 19:49N 46°00' W 122°51'0 0.0
2018-Feb-21 19:28N 46°00' W 122°51'0 0.0
2018-Feb-21 18:49N 46°00' W 122°51'0 0.0
2018-Feb-21 18:19N 46°00' W 122°51'0 0.0
2018-Feb-21 17:49N 46°00' W 122°51'0 0.0
2018-Feb-21 17:25N 46°00' W 122°51'0 0.0
2018-Feb-21 16:58N 46°00' W 122°51'0 0.0
2018-Feb-21 16:28N 46°00' W 122°51'0 0.0
2018-Feb-21 15:55N 46°00' W 122°51'0 0.0
2018-Feb-21 15:16N 46°00' W 122°51'0 0.0
2018-Feb-21 14:58N 46°00' W 122°51'0 0.0
2018-Feb-21 14:28N 46°00' W 122°51'0 0.0
2018-Feb-21 13:46N 46°00' W 122°51'0 0.0
2018-Feb-21 13:25N 46°00' W 122°51'0 0.0
2018-Feb-21 12:49N 46°00' W 122°51'0 0.0
2018-Feb-21 12:22N 46°00' W 122°51'0 0.0
2018-Feb-21 11:58N 46°00' W 122°51'0 0.0
2018-Feb-21 11:10N 46°00' W 122°51'0 0.0
2018-Feb-21 10:58N 46°00' W 122°51'0 0.0
2018-Feb-21 10:28N 46°00' W 122°51'0 0.0
2018-Feb-21 09:58N 46°00' W 122°51'0 0.0
2018-Feb-21 09:25N 46°00' W 122°51'0 0.0
2018-Feb-21 08:43N 46°00' W 122°51'0 0.0
2018-Feb-21 08:07N 46°00' W 122°51'0 0.0
2018-Feb-21 07:55N 46°00' W 122°51'0 0.0
2018-Feb-21 07:22N 46°00' W 122°51'0 0.0
2018-Feb-21 06:31N 46°00' W 122°51'0 0.0
2018-Feb-21 06:25N 46°00' W 122°51'0 0.0
2018-Feb-21 05:58N 46°00' W 122°51'0 0.0
2018-Feb-21 05:28N 46°00' W 122°51'0 0.0
2018-Feb-21 04:55N 46°00' W 122°51'0 0.0
2018-Feb-21 04:28N 46°00' W 122°51'0 0.0
2018-Feb-21 03:46N 46°00' W 122°51'0 0.0
2018-Feb-21 03:25N 46°00' W 122°51'0 0.0
2018-Feb-21 02:58N 46°00' W 122°51'0 0.0
2018-Feb-21 02:25N 46°00' W 122°51'0 0.0
2018-Feb-21 01:55N 46°00' W 122°51'0 0.0
2018-Feb-21 01:28N 46°00' W 122°51'0 0.0
2018-Feb-21 00:52N 46°00' W 122°51'0 0.0
2018-Feb-21 00:22N 46°00' W 122°51'0 0.0
2018-Feb-20 22:55N 46°00' W 122°51'0 0.0
2018-Feb-20 22:13N 46°00' W 122°51'0 0.0
2018-Feb-20 21:55N 46°00' W 122°51'0 0.0
2018-Feb-20 21:28N 46°00' W 122°51'0 0.0
2018-Feb-20 20:43N 46°00' W 122°51'0 0.0
2018-Feb-20 20:19N 46°00' W 122°51'0 0.0
2018-Feb-20 19:55N 46°00' W 122°51'0 0.0
2018-Feb-20 19:20N 46°00' W 122°51'618.2
2018-Feb-20 19:00N 46°06' W 122°56'611.7
2018-Feb-20 18:29N 46°09' W 123°03'2 3.6
2018-Feb-20 17:54N 46°10' W 123°05'511.3
2018-Feb-20 17:30N 46°08' W 122°60'919.2
2018-Feb-20 17:01N 46°01' W 122°51'0 0.3
2018-Feb-20 16:28N 46°00' W 122°51'0 0.0
2018-Feb-20 15:58N 46°00' W 122°51'0 0.0
2018-Feb-20 15:10N 46°00' W 122°51'0 0.0
2018-Feb-20 14:58N 46°00' W 122°51'0 0.0
2018-Feb-20 14:28N 46°00' W 122°51'0 0.0
2018-Feb-20 13:58N 46°00' W 122°51'0 0.0
2018-Feb-20 13:13N 46°00' W 122°51'0 0.0
2018-Feb-20 12:58N 46°00' W 122°51'0 0.0
2018-Feb-20 12:28N 46°00' W 122°51'0 0.0
2018-Feb-20 12:01N 46°00' W 122°51'1 2.0
2018-Feb-20 11:19N 46°02' W 122°52'0 0.1
2018-Feb-20 10:58N 46°02' W 122°52'0 0.4
2018-Feb-20 10:30N 46°02' W 122°52'0 0.3
2018-Feb-20 09:50N 46°02' W 122°52'0 0.0
2018-Feb-20 09:23N 46°02' W 122°52'0 0.0
2018-Feb-20 08:59N 46°02' W 122°52'0 0.0
2018-Feb-20 08:29N 46°02' W 122°52'0 0.0
2018-Feb-20 07:59N 46°02' W 122°52'1 2.7
2018-Feb-20 07:28N 46°00' W 122°51'0 0.0
2018-Feb-20 06:52N 46°00' W 122°51'0 0.0
2018-Feb-20 06:22N 46°00' W 122°51'0 0.0
2018-Feb-20 05:43N 46°00' W 122°51'0 0.0
2018-Feb-20 05:28N 46°00' W 122°51'0 0.0
2018-Feb-20 04:58N 46°00' W 122°51'0 0.0
2018-Feb-20 04:28N 46°00' W 122°51'0 0.0
2018-Feb-20 03:58N 46°00' W 122°51'0 0.0
2018-Feb-20 03:13N 46°00' W 122°51'0 0.0
2018-Feb-20 02:55N 46°00' W 122°51'0 0.0
2018-Feb-20 02:06N 46°00' W 122°51'0 1.0
2018-Feb-20 01:58N 46°01' W 122°51'0 0.0
2018-Feb-20 01:27N 46°01' W 122°51'613.9
2018-Feb-20 01:00N 46°06' W 122°56'2 4.3
2018-Feb-20 00:29N 46°07' W 122°59'816.0
2018-Feb-19 23:57N 46°01' W 122°51'0 0.3
2018-Feb-19 23:30N 46°00' W 122°51'0 0.0
2018-Feb-19 23:00N 46°00' W 122°51'0 0.0
2018-Feb-19 22:27N 46°00' W 122°51'0 0.0
2018-Feb-19 22:00N 46°00' W 122°51'0 0.0
2018-Feb-19 21:30N 46°00' W 122°51'0 0.0
2018-Feb-19 20:54N 46°00' W 122°51'0 0.0
2018-Feb-19 20:27N 46°00' W 122°51'0 0.0
2018-Feb-19 20:00N 46°00' W 122°51'0 0.0
2018-Feb-19 18:54N 46°00' W 122°51'0 0.0
2018-Feb-19 18:09N 46°00' W 122°51'0 0.0
2018-Feb-19 17:51N 46°00' W 122°51'0 0.0
2018-Feb-19 17:24N 46°00' W 122°51'0 0.0
2018-Feb-19 17:00N 46°00' W 122°51'0 0.0
2018-Feb-19 16:27N 46°00' W 122°51'0 0.0
2018-Feb-19 15:57N 46°00' W 122°51'0 0.0
2018-Feb-19 15:24N 46°00' W 122°51'0 0.0
2018-Feb-19 14:54N 46°00' W 122°51'0 0.0
2018-Feb-19 14:21N 46°00' W 122°51'0 0.0
2018-Feb-19 13:54N 46°00' W 122°51'0 0.0
2018-Feb-19 13:21N 46°00' W 122°51'0 0.0
2018-Feb-19 13:00N 46°00' W 122°51'0 0.0
2018-Feb-19 12:27N 46°00' W 122°51'0 0.0
2018-Feb-19 12:00N 46°00' W 122°51'0 0.0
2018-Feb-19 10:24N 46°00' W 122°51'0 0.0
2018-Feb-19 10:00N 46°00' W 122°51'0 0.0
2018-Feb-19 09:06N 46°00' W 122°51'0 0.0
2018-Feb-19 08:51N 46°00' W 122°51'0 0.0
2018-Feb-19 08:21N 46°00' W 122°51'0 0.0
2018-Feb-19 07:30N 46°00' W 122°51'0 0.0
2018-Feb-19 06:30N 46°00' W 122°51'0 0.0
2018-Feb-19 06:00N 46°00' W 122°51'0 0.0
2018-Feb-19 05:15N 46°00' W 122°51'0 0.0
2018-Feb-19 04:57N 46°00' W 122°51'0 0.0
2018-Feb-19 04:27N 46°00' W 122°51'0 0.0
2018-Feb-19 03:54N 46°00' W 122°51'0 0.0
2018-Feb-19 03:24N 46°00' W 122°51'0 0.0
2018-Feb-19 03:00N 46°00' W 122°51'0 0.0
2018-Feb-19 02:24N 46°00' W 122°51'0 0.0
2018-Feb-19 02:00N 46°00' W 122°51'0 0.0
2018-Feb-19 01:21N 46°00' W 122°51'0 0.0
2018-Feb-19 01:00N 46°00' W 122°51'0 0.0
2018-Feb-19 00:30N 46°00' W 122°51'0 0.0
2018-Feb-18 23:57N 46°00' W 122°51'0 0.0
2018-Feb-18 23:30N 46°00' W 122°51'0 0.0
2018-Feb-18 23:00N 46°00' W 122°51'0 0.0
2018-Feb-18 22:27N 46°00' W 122°51'0 0.0
2018-Feb-18 22:00N 46°00' W 122°51'0 0.0
2018-Feb-18 21:30N 46°00' W 122°51'0 0.0
2018-Feb-18 21:00N 46°00' W 122°51'0 0.0
2018-Feb-18 20:21N 46°00' W 122°51'0 0.0
2018-Feb-18 19:51N 46°00' W 122°51'0 0.0
2018-Feb-18 19:24N 46°00' W 122°51'0 0.0
2018-Feb-18 18:48N 46°00' W 122°51'0 0.0
2018-Feb-18 18:27N 46°00' W 122°51'0 0.0
2018-Feb-18 17:57N 46°00' W 122°51'0 0.0
2018-Feb-18 17:30N 46°00' W 122°51'0 0.0
2018-Feb-18 16:57N 46°00' W 122°51'0 0.0
2018-Feb-18 16:30N 46°00' W 122°51'0 0.0
2018-Feb-18 15:51N 46°00' W 122°51'0 0.0
2018-Feb-18 15:30N 46°00' W 122°51'0 0.0
2018-Feb-18 14:54N 46°00' W 122°51'0 0.0
2018-Feb-18 14:27N 46°00' W 122°51'0 0.0
2018-Feb-18 14:00N 46°00' W 122°51'0 0.0
2018-Feb-18 13:30N 46°00' W 122°51'0 0.0
2018-Feb-18 12:57N 46°00' W 122°51'0 0.0
2018-Feb-18 12:27N 46°00' W 122°51'0 0.0
2018-Feb-18 11:45N 46°00' W 122°51'0 0.0
2018-Feb-18 11:30N 46°00' W 122°51'0 0.0
2018-Feb-18 11:00N 46°00' W 122°51'0 0.0
2018-Feb-18 10:18N 46°00' W 122°51'0 0.0
2018-Feb-18 09:48N 46°00' W 122°51'0 0.0
2018-Feb-18 09:30N 46°00' W 122°51'0 0.0
2018-Feb-18 09:00N 46°00' W 122°51'0 0.0
2018-Feb-18 08:24N 46°00' W 122°51'0 0.0
2018-Feb-18 07:57N 46°00' W 122°51'0 0.0
2018-Feb-18 07:27N 46°00' W 122°51'0 0.0
2018-Feb-18 07:00N 46°00' W 122°51'0 0.0
2018-Feb-18 06:27N 46°00' W 122°51'0 0.0
2018-Feb-18 05:54N 46°00' W 122°51'0 0.0
2018-Feb-18 05:30N 46°00' W 122°51'0 0.0
2018-Feb-18 04:57N 46°00' W 122°51'0 0.0
2018-Feb-18 04:27N 46°00' W 122°51'0 0.0
2018-Feb-18 03:57N 46°00' W 122°51'0 0.0
2018-Feb-18 03:30N 46°00' W 122°51'0 0.0
2018-Feb-18 02:57N 46°00' W 122°51'0 0.0
2018-Feb-18 02:30N 46°00' W 122°51'0 0.0
2018-Feb-18 02:00N 46°00' W 122°51'0 0.0
2018-Feb-18 01:30N 46°00' W 122°51'0 0.0
2018-Feb-18 00:54N 46°00' W 122°51'0 0.0
2018-Feb-17 23:48N 46°00' W 122°51'0 0.0
2018-Feb-17 23:30N 46°00' W 122°51'0 0.0
2018-Feb-17 22:57N 46°00' W 122°51'0 0.0
2018-Feb-17 22:30N 46°00' W 122°51'0 0.0
2018-Feb-17 21:57N 46°00' W 122°51'0 0.0
2018-Feb-17 21:30N 46°00' W 122°51'0 0.0
2018-Feb-17 21:00N 46°00' W 122°51'0 0.0
2018-Feb-17 20:30N 46°00' W 122°51'0 0.0
2018-Feb-17 20:00N 46°00' W 122°51'0 0.0
2018-Feb-17 19:27N 46°00' W 122°51'0 0.0
2018-Feb-17 18:36N 46°00' W 122°51'0 0.0
2018-Feb-17 18:30N 46°00' W 122°51'0 0.0
2018-Feb-17 17:36N 46°00' W 122°51'0 0.0
2018-Feb-17 17:27N 46°00' W 122°51'0 0.0
2018-Feb-17 16:57N 46°00' W 122°51'0 0.0
2018-Feb-17 16:18N 46°00' W 122°51'0 0.0
2018-Feb-17 16:00N 46°00' W 122°51'0 0.0
2018-Feb-17 15:27N 46°00' W 122°51'0 0.0
2018-Feb-17 15:00N 46°00' W 122°51'0 0.0
2018-Feb-17 14:30N 46°00' W 122°51'0 0.0
2018-Feb-17 14:00N 46°00' W 122°51'0 0.0
2018-Feb-17 13:18N 46°00' W 122°51'5 6.4
2018-Feb-17 12:34N 46°05' W 122°54'613.0
2018-Feb-17 12:05N 46°08' W 123°01'3 3.4
2018-Feb-17 11:07N 46°06' W 122°58'1 1.1
2018-Feb-17 10:38N 46°06' W 122°57'417.5
2018-Feb-17 10:23N 46°03' W 122°53'3 6.2
2018-Feb-17 09:56N 46°00' W 122°51'0 0.0
2018-Feb-17 09:29N 46°00' W 122°51'0 0.0
2018-Feb-17 08:59N 46°00' W 122°51'0 0.0
2018-Feb-17 08:29N 46°00' W 122°51'0 0.0
2018-Feb-17 07:47N 46°00' W 122°51'0 0.0
2018-Feb-17 07:26N 46°00' W 122°51'0 0.0
2018-Feb-17 06:59N 46°00' W 122°51'0 0.0
2018-Feb-17 06:23N 46°00' W 122°51'0 0.0
2018-Feb-17 05:50N 46°00' W 122°51'0 0.0
2018-Feb-17 05:08N 46°00' W 122°51'0 0.0
2018-Feb-17 04:59N 46°00' W 122°51'0 0.0
2018-Feb-17 04:29N 46°00' W 122°51'0 0.0
2018-Feb-17 03:11N 46°00' W 122°51'0 0.0
2018-Feb-17 02:59N 46°00' W 122°51'0 0.0
2018-Feb-17 02:29N 46°00' W 122°51'0 0.0
2018-Feb-17 01:59N 46°00' W 122°51'0 0.0
2018-Feb-17 01:29N 46°00' W 122°51'0 0.0
2018-Feb-17 00:50N 46°00' W 122°51'0 0.0
2018-Feb-17 00:29N 46°00' W 122°51'0 0.0
2018-Feb-16 23:56N 46°00' W 122°51'0 0.0
2018-Feb-16 23:29N 46°00' W 122°51'0 0.0
2018-Feb-16 22:56N 46°00' W 122°51'0 0.0
2018-Feb-16 22:23N 46°00' W 122°51'0 0.0
2018-Feb-16 21:56N 46°00' W 122°51'0 0.0
2018-Feb-16 21:29N 46°00' W 122°51'0 0.0
2018-Feb-16 20:23N 46°00' W 122°51'0 0.0
2018-Feb-16 19:47N 46°00' W 122°51'0 0.0
2018-Feb-16 19:23N 46°00' W 122°51'0 0.0
2018-Feb-16 18:53N 46°00' W 122°51'0 0.0
2018-Feb-16 18:29N 46°00' W 122°51'0 0.0
2018-Feb-16 17:53N 46°00' W 122°51'0 0.0
2018-Feb-16 17:02N 46°00' W 122°51'0 0.0
2018-Feb-16 16:56N 46°00' W 122°51'0 0.0
2018-Feb-16 16:08N 46°00' W 122°51'0 0.0
2018-Feb-16 15:35N 46°00' W 122°51'0 0.0
2018-Feb-16 15:23N 46°00' W 122°51'0 0.0
2018-Feb-16 14:56N 46°00' W 122°51'0 0.0
2018-Feb-16 14:26N 46°00' W 122°51'0 0.0
2018-Feb-16 13:59N 46°00' W 122°51'0 0.0
2018-Feb-16 13:14N 46°00' W 122°51'0 0.0
2018-Feb-16 12:50N 46°00' W 122°51'0 0.0
2018-Feb-16 11:47N 46°00' W 122°51'0 0.0
2018-Feb-16 11:29N 46°00' W 122°51'0 0.0
2018-Feb-16 10:56N 46°00' W 122°51'0 0.0
2018-Feb-16 10:30N 46°00' W 122°51'715.0
2018-Feb-16 10:00N 46°06' W 122°57'0 0.3
2018-Feb-16 09:02N 46°06' W 122°58'0 0.0
2018-Feb-16 08:59N 46°06' W 122°58'5 9.5
2018-Feb-16 08:30N 46°03' W 122°53'3 5.3
2018-Feb-16 07:56N 46°00' W 122°51'0 0.0
2018-Feb-16 07:29N 46°00' W 122°51'0 0.0
2018-Feb-16 06:59N 46°00' W 122°51'0 0.0
2018-Feb-16 06:26N 46°00' W 122°51'0 0.0
2018-Feb-16 05:56N 46°00' W 122°51'0 0.0
2018-Feb-16 05:29N 46°00' W 122°51'0 0.0
2018-Feb-16 04:53N 46°00' W 122°51'0 0.0
2018-Feb-16 04:29N 46°00' W 122°51'0 0.0
2018-Feb-16 03:56N 46°00' W 122°51'0 0.0
2018-Feb-16 03:29N 46°00' W 122°51'0 0.0
2018-Feb-16 02:59N 46°00' W 122°51'0 0.0
2018-Feb-16 02:26N 46°00' W 122°51'0 0.0
2018-Feb-16 01:59N 46°00' W 122°51'0 0.0
2018-Feb-16 01:29N 46°00' W 122°51'0 0.0
2018-Feb-16 00:23N 46°00' W 122°51'0 0.0
2018-Feb-15 23:56N 46°00' W 122°51'0 0.0
2018-Feb-15 23:29N 46°00' W 122°51'0 0.0
2018-Feb-15 22:53N 46°00' W 122°51'0 0.0
2018-Feb-15 22:23N 46°00' W 122°51'0 0.0
2018-Feb-15 21:56N 46°00' W 122°51'0 0.0
2018-Feb-15 21:26N 46°00' W 122°51'0 0.0
2018-Feb-15 20:59N 46°00' W 122°51'0 0.0
2018-Feb-15 20:08N 46°00' W 122°51'0 0.0
2018-Feb-15 19:47N 46°00' W 122°51'0 0.0
2018-Feb-15 19:29N 46°00' W 122°51'0 0.0
2018-Feb-15 18:50N 46°00' W 122°51'0 0.0
2018-Feb-15 18:20N 46°00' W 122°51'0 0.0
2018-Feb-15 17:56N 46°00' W 122°51'0 0.0
2018-Feb-15 17:14N 46°00' W 122°51'0 0.0
2018-Feb-15 16:53N 46°00' W 122°51'0 0.0
2018-Feb-15 16:29N 46°00' W 122°51'0 0.0
2018-Feb-15 15:53N 46°00' W 122°51'0 0.0
2018-Feb-15 15:23N 46°00' W 122°51'0 0.0
2018-Feb-15 14:50N 46°00' W 122°51'0 0.0
2018-Feb-15 14:29N 46°00' W 122°51'0 0.0
2018-Feb-15 13:56N 46°00' W 122°51'0 0.0
2018-Feb-15 13:23N 46°00' W 122°51'0 0.0
2018-Feb-15 12:59N 46°00' W 122°51'0 0.0
2018-Feb-15 12:26N 46°00' W 122°51'0 0.0
2018-Feb-15 11:59N 46°00' W 122°51'0 0.0
2018-Feb-15 10:38N 46°00' W 122°51'0 0.0
2018-Feb-15 10:11N 46°00' W 122°51'0 0.0
2018-Feb-15 09:53N 46°00' W 122°51'0 0.0
2018-Feb-15 09:26N 46°00' W 122°51'0 0.0
2018-Feb-15 08:56N 46°00' W 122°51'0 0.0
2018-Feb-15 08:29N 46°00' W 122°51'0 0.0
2018-Feb-15 07:56N 46°00' W 122°51'0 0.0
2018-Feb-15 07:26N 46°00' W 122°51'0 0.0
2018-Feb-15 06:59N 46°00' W 122°51'0 0.0
2018-Feb-15 06:23N 46°00' W 122°51'0 0.0
2018-Feb-15 05:59N 46°00' W 122°51'0 0.0
2018-Feb-15 05:26N 46°00' W 122°51'0 0.0
2018-Feb-15 04:59N 46°00' W 122°51'0 0.0
2018-Feb-15 04:29N 46°00' W 122°51'0 0.0
2018-Feb-15 03:59N 46°00' W 122°51'  
Track history (hours):
 
Tides and Currents Weather Stations Pressure Air Temp Water Temp Dewpoint Dewpoint Depression Visibility Wind Speed Wind Dir Waves Ship Positions

Triumph V

Owner: Anchorage Launch Service Co, Portland, OR. More information available from US FCC via Universal Licensing System and Coast Guard Vessel Documentation Center.

Last reported at 2018-Feb-25 03:27 UTC. Time now 2018-Feb-25 03:41 UTC.
Position N 46°00' W 122°51'.

Length 30 m.

MMSI: 367084780.

Date/timePositionNaut miles runAvg speedWind from/ knotsBaromVisibWave heightAir tempDewpointWater temp
2018-Feb-25 03:27N 46°00' W 122°51'0 0.0
2018-Feb-25 03:00N 46°00' W 122°51'0 0.0
2018-Feb-25 02:27N 46°00' W 122°51'0 0.0
2018-Feb-25 02:00N 46°00' W 122°51'0 0.0
2018-Feb-25 01:24N 46°00' W 122°51'0 1.0
2018-Feb-25 01:00N 46°01' W 122°51'0 0.6
2018-Feb-25 00:30N 46°01' W 122°51'1 2.4
2018-Feb-24 23:59N 46°02' W 122°52'0 0.0
2018-Feb-24 22:50N 46°02' W 122°52'0 0.0
2018-Feb-24 22:28N 46°02' W 122°52'1 1.7
2018-Feb-24 21:40N 46°00' W 122°51'0 0.0
2018-Feb-24 21:28N 46°00' W 122°51'0 0.0
2018-Feb-24 20:55N 46°00' W 122°51'0 0.0
2018-Feb-24 20:25N 46°00' W 122°51'0 0.0
2018-Feb-24 19:52N 46°00' W 122°51'0 0.0
2018-Feb-24 19:25N 46°00' W 122°51'0 0.0
2018-Feb-24 18:52N 46°00' W 122°51'0 0.0
2018-Feb-24 18:28N 46°00' W 122°51'0 0.0
2018-Feb-24 17:58N 46°00' W 122°51'0 0.0
2018-Feb-24 17:25N 46°00' W 122°51'0 0.0
2018-Feb-24 16:58N 46°00' W 122°51'0 0.0
2018-Feb-24 16:28N 46°00' W 122°51'0 0.0
2018-Feb-24 15:22N 46°00' W 122°51'0 0.0
2018-Feb-24 14:49N 46°00' W 122°51'0 0.0
2018-Feb-24 14:28N 46°00' W 122°51'0 0.0
2018-Feb-24 13:55N 46°00' W 122°51'3 7.0
2018-Feb-24 13:30N 46°03' W 122°53'1 1.6
2018-Feb-24 12:35N 46°04' W 122°54'0 0.5
2018-Feb-24 12:30N 46°04' W 122°54'4 7.6
2018-Feb-24 12:00N 46°01' W 122°51'1 1.1
2018-Feb-24 11:29N 46°00' W 122°51'0 0.0
2018-Feb-24 10:41N 46°00' W 122°51'0 0.0
2018-Feb-24 10:11N 46°00' W 122°51'0 0.0
2018-Feb-24 09:56N 46°00' W 122°51'0 0.0
2018-Feb-24 09:29N 46°00' W 122°51'0 0.0
2018-Feb-24 08:59N 46°00' W 122°51'0 0.0
2018-Feb-24 08:29N 46°00' W 122°51'0 0.0
2018-Feb-24 07:53N 46°00' W 122°51'0 0.0
2018-Feb-24 07:29N 46°00' W 122°51'0 0.0
2018-Feb-24 06:59N 46°00' W 122°51'0 0.0
2018-Feb-24 06:23N 46°00' W 122°51'0 0.3
2018-Feb-24 06:00N 46°01' W 122°51'0 0.3
2018-Feb-24 05:30N 46°00' W 122°51'0 0.0
2018-Feb-24 04:57N 46°00' W 122°51'0 0.0
2018-Feb-24 04:30N 46°00' W 122°51'0 0.0
2018-Feb-24 03:54N 46°00' W 122°51'0 0.0
2018-Feb-24 03:27N 46°00' W 122°51'0 0.0
2018-Feb-24 03:00N 46°00' W 122°51'0 0.0
2018-Feb-24 02:30N 46°00' W 122°51'0 0.0
2018-Feb-24 02:00N 46°00' W 122°51'0 0.0
2018-Feb-24 00:39N 46°00' W 122°51'0 0.0
2018-Feb-24 00:27N 46°00' W 122°51'0 0.0
2018-Feb-23 23:51N 46°00' W 122°51'0 0.0
2018-Feb-23 23:27N 46°00' W 122°51'0 0.0
2018-Feb-23 22:39N 46°00' W 122°51'0 0.0
2018-Feb-23 22:30N 46°00' W 122°51'0 0.0
2018-Feb-23 22:00N 46°00' W 122°51'0 0.0
2018-Feb-23 21:21N 46°00' W 122°51'0 0.0
2018-Feb-23 21:00N 46°00' W 122°51'0 0.1
2018-Feb-23 20:01N 46°01' W 122°51'0 0.0
2018-Feb-23 19:58N 46°01' W 122°51'0 0.6
2018-Feb-23 19:27N 46°01' W 122°51'0 0.1
2018-Feb-23 19:00N 46°01' W 122°51'0 0.7
2018-Feb-23 18:30N 46°01' W 122°51'0 0.0
2018-Feb-23 17:58N 46°01' W 122°51'1 1.3
2018-Feb-23 17:30N 46°01' W 122°52'1 1.2
2018-Feb-23 16:59N 46°01' W 122°51'0 0.0
2018-Feb-23 16:28N 46°01' W 122°51'0 0.2
2018-Feb-23 15:56N 46°00' W 122°51'0 0.0
2018-Feb-23 15:29N 46°00' W 122°51'0 0.0
2018-Feb-23 14:59N 46°00' W 122°51'0 0.0
2018-Feb-23 14:29N 46°00' W 122°51'0 0.0
2018-Feb-23 13:59N 46°00' W 122°51'0 0.0
2018-Feb-23 13:29N 46°00' W 122°51'0 0.0
2018-Feb-23 12:59N 46°00' W 122°51'0 0.0
2018-Feb-23 12:29N 46°00' W 122°51'0 0.0
2018-Feb-23 11:59N 46°00' W 122°51'0 0.0
2018-Feb-23 11:23N 46°00' W 122°51'0 0.0
2018-Feb-23 10:05N 46°00' W 122°51'0 0.0
2018-Feb-23 09:59N 46°00' W 122°51'1 1.8
2018-Feb-23 09:14N 46°02' W 122°52'0 0.0
2018-Feb-23 08:56N 46°02' W 122°52'0 0.0
2018-Feb-23 08:20N 46°02' W 122°52'0 0.0
2018-Feb-23 07:56N 46°02' W 122°52'1 1.6
2018-Feb-23 07:04N 46°00' W 122°51'0 0.0
2018-Feb-23 06:55N 46°00' W 122°51'0 0.0
2018-Feb-23 06:22N 46°00' W 122°51'0 0.0
2018-Feb-23 05:58N 46°00' W 122°51'0 0.0
2018-Feb-23 05:28N 46°00' W 122°51'0 0.0
2018-Feb-23 04:58N 46°00' W 122°51'0 0.0
2018-Feb-23 04:25N 46°00' W 122°51'0 0.0
2018-Feb-23 03:52N 46°00' W 122°51'0 0.0
2018-Feb-23 03:25N 46°00' W 122°51'0 0.0
2018-Feb-23 02:58N 46°00' W 122°51'0 0.0
2018-Feb-23 02:22N 46°00' W 122°51'0 0.0
2018-Feb-23 01:40N 46°00' W 122°51'0 0.0
2018-Feb-23 01:13N 46°00' W 122°51'0 0.0
2018-Feb-23 00:58N 46°00' W 122°51'0 0.0
2018-Feb-23 00:28N 46°00' W 122°51'0 0.0
2018-Feb-22 23:52N 46°00' W 122°51'0 0.0
2018-Feb-22 23:19N 46°00' W 122°51'0 0.0
2018-Feb-22 22:55N 46°00' W 122°51'0 0.0
2018-Feb-22 22:25N 46°00' W 122°51'0 0.0
2018-Feb-22 21:58N 46°00' W 122°51'0 0.0
2018-Feb-22 21:22N 46°00' W 122°51'0 0.0
2018-Feb-22 20:58N 46°00' W 122°51'0 0.0
2018-Feb-22 19:43N 46°00' W 122°51'0 0.0
2018-Feb-22 19:22N 46°00' W 122°51'0 0.0
2018-Feb-22 18:31N 46°00' W 122°51'0 0.0
2018-Feb-22 18:28N 46°00' W 122°51'0 0.0
2018-Feb-22 17:58N 46°00' W 122°51'0 0.0
2018-Feb-22 17:28N 46°00' W 122°51'0 0.0
2018-Feb-22 16:58N 46°00' W 122°51'0 0.0
2018-Feb-22 16:28N 46°00' W 122°51'2 3.8
2018-Feb-22 16:00N 46°02' W 122°52'815.4
2018-Feb-22 15:30N 46°08' W 122°60'0 0.3
2018-Feb-22 14:57N 46°08' W 122°59'0 0.0
2018-Feb-22 14:27N 46°08' W 122°59'0 0.1
2018-Feb-22 13:55N 46°08' W 122°59'0 0.0
2018-Feb-22 13:28N 46°08' W 122°59'613.7
2018-Feb-22 13:00N 46°03' W 122°53'3 4.8
2018-Feb-22 12:22N 46°00' W 122°51'0 0.0
2018-Feb-22 11:55N 46°00' W 122°51'0 0.0
2018-Feb-22 11:28N 46°00' W 122°51'0 0.0
2018-Feb-22 10:55N 46°00' W 122°51'0 0.0
2018-Feb-22 10:25N 46°00' W 122°51'0 0.0
2018-Feb-22 09:34N 46°00' W 122°51'0 0.0
2018-Feb-22 09:22N 46°00' W 122°51'0 0.0
2018-Feb-22 08:40N 46°00' W 122°51'0 0.0
2018-Feb-22 08:28N 46°00' W 122°51'0 0.0
2018-Feb-22 07:55N 46°00' W 122°51'0 0.0
2018-Feb-22 07:22N 46°00' W 122°51'0 0.0
2018-Feb-22 06:55N 46°00' W 122°51'0 0.0
2018-Feb-22 06:28N 46°00' W 122°51'0 0.0
2018-Feb-22 05:46N 46°00' W 122°51'0 0.0
2018-Feb-22 05:19N 46°00' W 122°51'0 0.0
2018-Feb-22 04:58N 46°00' W 122°51'0 0.0
2018-Feb-22 04:22N 46°00' W 122°51'0 0.0
2018-Feb-22 03:55N 46°00' W 122°51'0 0.0
2018-Feb-22 03:16N 46°00' W 122°51'0 0.0
2018-Feb-22 02:58N 46°00' W 122°51'0 0.0
2018-Feb-22 02:28N 46°00' W 122°51'0 0.0
2018-Feb-22 01:52N 46°00' W 122°51'0 0.0
2018-Feb-22 01:25N 46°00' W 122°51'0 0.0
2018-Feb-22 00:55N 46°00' W 122°51'0 0.0
2018-Feb-22 00:25N 46°00' W 122°51'0 0.0
2018-Feb-21 23:58N 46°00' W 122°51'0 0.0
2018-Feb-21 23:22N 46°00' W 122°51'0 0.0
2018-Feb-21 22:58N 46°00' W 122°51'0 0.0
2018-Feb-21 22:25N 46°00' W 122°51'0 0.0
2018-Feb-21 21:55N 46°00' W 122°51'0 0.0
2018-Feb-21 21:25N 46°00' W 122°51'0 0.0
2018-Feb-21 20:34N 46°00' W 122°51'0 0.0
2018-Feb-21 20:22N 46°00' W 122°51'0 0.0
2018-Feb-21 19:49N 46°00' W 122°51'0 0.0
2018-Feb-21 19:28N 46°00' W 122°51'0 0.0
2018-Feb-21 18:49N 46°00' W 122°51'0 0.0
2018-Feb-21 18:19N 46°00' W 122°51'0 0.0
2018-Feb-21 17:49N 46°00' W 122°51'0 0.0
2018-Feb-21 17:25N 46°00' W 122°51'0 0.0
2018-Feb-21 16:58N 46°00' W 122°51'0 0.0
2018-Feb-21 16:28N 46°00' W 122°51'0 0.0
2018-Feb-21 15:55N 46°00' W 122°51'0 0.0
2018-Feb-21 15:16N 46°00' W 122°51'0 0.0
2018-Feb-21 14:58N 46°00' W 122°51'0 0.0
2018-Feb-21 14:28N 46°00' W 122°51'0 0.0
2018-Feb-21 13:46N 46°00' W 122°51'0 0.0
2018-Feb-21 13:25N 46°00' W 122°51'0 0.0
2018-Feb-21 12:49N 46°00' W 122°51'0 0.0
2018-Feb-21 12:22N 46°00' W 122°51'0 0.0
2018-Feb-21 11:58N 46°00' W 122°51'0 0.0
2018-Feb-21 11:10N 46°00' W 122°51'0 0.0
2018-Feb-21 10:58N 46°00' W 122°51'0 0.0
2018-Feb-21 10:28N 46°00' W 122°51'0 0.0
2018-Feb-21 09:58N 46°00' W 122°51'0 0.0
2018-Feb-21 09:25N 46°00' W 122°51'0 0.0
2018-Feb-21 08:43N 46°00' W 122°51'0 0.0
2018-Feb-21 08:07N 46°00' W 122°51'0 0.0
2018-Feb-21 07:55N 46°00' W 122°51'0 0.0
2018-Feb-21 07:22N 46°00' W 122°51'0 0.0
2018-Feb-21 06:31N 46°00' W 122°51'0 0.0
2018-Feb-21 06:25N 46°00' W 122°51'0 0.0
2018-Feb-21 05:58N 46°00' W 122°51'0 0.0
2018-Feb-21 05:28N 46°00' W 122°51'0 0.0
2018-Feb-21 04:55N 46°00' W 122°51'0 0.0
2018-Feb-21 04:28N 46°00' W 122°51'0 0.0
2018-Feb-21 03:46N 46°00' W 122°51'0 0.0
2018-Feb-21 03:25N 46°00' W 122°51'0 0.0
2018-Feb-21 02:58N 46°00' W 122°51'0 0.0
2018-Feb-21 02:25N 46°00' W 122°51'0 0.0
2018-Feb-21 01:55N 46°00' W 122°51'0 0.0
2018-Feb-21 01:28N 46°00' W 122°51'0 0.0
2018-Feb-21 00:52N 46°00' W 122°51'0 0.0
2018-Feb-21 00:22N 46°00' W 122°51'0 0.0
2018-Feb-20 22:55N 46°00' W 122°51'0 0.0
2018-Feb-20 22:13N 46°00' W 122°51'0 0.0
2018-Feb-20 21:55N 46°00' W 122°51'0 0.0
2018-Feb-20 21:28N 46°00' W 122°51'0 0.0
2018-Feb-20 20:43N 46°00' W 122°51'0 0.0
2018-Feb-20 20:19N 46°00' W 122°51'0 0.0
2018-Feb-20 19:55N 46°00' W 122°51'0 0.0
2018-Feb-20 19:20N 46°00' W 122°51'618.2
2018-Feb-20 19:00N 46°06' W 122°56'611.7
2018-Feb-20 18:29N 46°09' W 123°03'2 3.6
2018-Feb-20 17:54N 46°10' W 123°05'511.3
2018-Feb-20 17:30N 46°08' W 122°60'919.2
2018-Feb-20 17:01N 46°01' W 122°51'0 0.3
2018-Feb-20 16:28N 46°00' W 122°51'0 0.0
2018-Feb-20 15:58N 46°00' W 122°51'0 0.0
2018-Feb-20 15:10N 46°00' W 122°51'0 0.0
2018-Feb-20 14:58N 46°00' W 122°51'0 0.0
2018-Feb-20 14:28N 46°00' W 122°51'0 0.0
2018-Feb-20 13:58N 46°00' W 122°51'0 0.0
2018-Feb-20 13:13N 46°00' W 122°51'0 0.0
2018-Feb-20 12:58N 46°00' W 122°51'0 0.0
2018-Feb-20 12:28N 46°00' W 122°51'0 0.0
2018-Feb-20 12:01N 46°00' W 122°51'1 2.0
2018-Feb-20 11:19N 46°02' W 122°52'0 0.1
2018-Feb-20 10:58N 46°02' W 122°52'0 0.4
2018-Feb-20 10:30N 46°02' W 122°52'0 0.3
2018-Feb-20 09:50N 46°02' W 122°52'0 0.0
2018-Feb-20 09:23N 46°02' W 122°52'0 0.0
2018-Feb-20 08:59N 46°02' W 122°52'0 0.0
2018-Feb-20 08:29N 46°02' W 122°52'0 0.0
2018-Feb-20 07:59N 46°02' W 122°52'1 2.7
2018-Feb-20 07:28N 46°00' W 122°51'0 0.0
2018-Feb-20 06:52N 46°00' W 122°51'0 0.0
2018-Feb-20 06:22N 46°00' W 122°51'0 0.0
2018-Feb-20 05:43N 46°00' W 122°51'0 0.0
2018-Feb-20 05:28N 46°00' W 122°51'0 0.0
2018-Feb-20 04:58N 46°00' W 122°51'0 0.0
2018-Feb-20 04:28N 46°00' W 122°51'0 0.0
2018-Feb-20 03:58N 46°00' W 122°51'0 0.0
2018-Feb-20 03:13N 46°00' W 122°51'0 0.0
2018-Feb-20 02:55N 46°00' W 122°51'0 0.0
2018-Feb-20 02:06N 46°00' W 122°51'0 1.0
2018-Feb-20 01:58N 46°01' W 122°51'0 0.0
2018-Feb-20 01:27N 46°01' W 122°51'613.9
2018-Feb-20 01:00N 46°06' W 122°56'2 4.3
2018-Feb-20 00:29N 46°07' W 122°59'816.0
2018-Feb-19 23:57N 46°01' W 122°51'0 0.3
2018-Feb-19 23:30N 46°00' W 122°51'0 0.0
2018-Feb-19 23:00N 46°00' W 122°51'0 0.0
2018-Feb-19 22:27N 46°00' W 122°51'0 0.0
2018-Feb-19 22:00N 46°00' W 122°51'0 0.0
2018-Feb-19 21:30N 46°00' W 122°51'0 0.0
2018-Feb-19 20:54N 46°00' W 122°51'0 0.0
2018-Feb-19 20:27N 46°00' W 122°51'0 0.0
2018-Feb-19 20:00N 46°00' W 122°51'0 0.0
2018-Feb-19 18:54N 46°00' W 122°51'0 0.0
2018-Feb-19 18:09N 46°00' W 122°51'0 0.0
2018-Feb-19 17:51N 46°00' W 122°51'0 0.0
2018-Feb-19 17:24N 46°00' W 122°51'0 0.0
2018-Feb-19 17:00N 46°00' W 122°51'0 0.0
2018-Feb-19 16:27N 46°00' W 122°51'0 0.0
2018-Feb-19 15:57N 46°00' W 122°51'0 0.0
2018-Feb-19 15:24N 46°00' W 122°51'0 0.0
2018-Feb-19 14:54N 46°00' W 122°51'0 0.0
2018-Feb-19 14:21N 46°00' W 122°51'0 0.0
2018-Feb-19 13:54N 46°00' W 122°51'0 0.0
2018-Feb-19 13:21N 46°00' W 122°51'0 0.0
2018-Feb-19 13:00N 46°00' W 122°51'0 0.0
2018-Feb-19 12:27N 46°00' W 122°51'0 0.0
2018-Feb-19 12:00N 46°00' W 122°51'0 0.0
2018-Feb-19 10:24N 46°00' W 122°51'0 0.0
2018-Feb-19 10:00N 46°00' W 122°51'0 0.0
2018-Feb-19 09:06N 46°00' W 122°51'0 0.0
2018-Feb-19 08:51N 46°00' W 122°51'0 0.0
2018-Feb-19 08:21N 46°00' W 122°51'0 0.0
2018-Feb-19 07:30N 46°00' W 122°51'0 0.0
2018-Feb-19 06:30N 46°00' W 122°51'0 0.0
2018-Feb-19 06:00N 46°00' W 122°51'0 0.0
2018-Feb-19 05:15N 46°00' W 122°51'0 0.0
2018-Feb-19 04:57N 46°00' W 122°51'0 0.0
2018-Feb-19 04:27N 46°00' W 122°51'0 0.0
2018-Feb-19 03:54N 46°00' W 122°51'0 0.0
2018-Feb-19 03:24N 46°00' W 122°51'0 0.0
2018-Feb-19 03:00N 46°00' W 122°51'0 0.0
2018-Feb-19 02:24N 46°00' W 122°51'0 0.0
2018-Feb-19 02:00N 46°00' W 122°51'0 0.0
2018-Feb-19 01:21N 46°00' W 122°51'0 0.0
2018-Feb-19 01:00N 46°00' W 122°51'0 0.0
2018-Feb-19 00:30N 46°00' W 122°51'0 0.0
2018-Feb-18 23:57N 46°00' W 122°51'0 0.0
2018-Feb-18 23:30N 46°00' W 122°51'0 0.0
2018-Feb-18 23:00N 46°00' W 122°51'0 0.0
2018-Feb-18 22:27N 46°00' W 122°51'0 0.0
2018-Feb-18 22:00N 46°00' W 122°51'0 0.0
2018-Feb-18 21:30N 46°00' W 122°51'0 0.0
2018-Feb-18 21:00N 46°00' W 122°51'0 0.0
2018-Feb-18 20:21N 46°00' W 122°51'0 0.0
2018-Feb-18 19:51N 46°00' W 122°51'0 0.0
2018-Feb-18 19:24N 46°00' W 122°51'0 0.0
2018-Feb-18 18:48N 46°00' W 122°51'0 0.0
2018-Feb-18 18:27N 46°00' W 122°51'0 0.0
2018-Feb-18 17:57N 46°00' W 122°51'0 0.0
2018-Feb-18 17:30N 46°00' W 122°51'0 0.0
2018-Feb-18 16:57N 46°00' W 122°51'0 0.0
2018-Feb-18 16:30N 46°00' W 122°51'0 0.0
2018-Feb-18 15:51N 46°00' W 122°51'0 0.0
2018-Feb-18 15:30N 46°00' W 122°51'0 0.0
2018-Feb-18 14:54N 46°00' W 122°51'0 0.0
2018-Feb-18 14:27N 46°00' W 122°51'0 0.0
2018-Feb-18 14:00N 46°00' W 122°51'0 0.0
2018-Feb-18 13:30N 46°00' W 122°51'0 0.0
2018-Feb-18 12:57N 46°00' W 122°51'0 0.0
2018-Feb-18 12:27N 46°00' W 122°51'0 0.0
2018-Feb-18 11:45N 46°00' W 122°51'0 0.0
2018-Feb-18 11:30N 46°00' W 122°51'0 0.0
2018-Feb-18 11:00N 46°00' W 122°51'0 0.0
2018-Feb-18 10:18N 46°00' W 122°51'0 0.0
2018-Feb-18 09:48N 46°00' W 122°51'0 0.0
2018-Feb-18 09:30N 46°00' W 122°51'0 0.0
2018-Feb-18 09:00N 46°00' W 122°51'0 0.0
2018-Feb-18 08:24N 46°00' W 122°51'0 0.0
2018-Feb-18 07:57N 46°00' W 122°51'0 0.0
2018-Feb-18 07:27N 46°00' W 122°51'0 0.0
2018-Feb-18 07:00N 46°00' W 122°51'0 0.0
2018-Feb-18 06:27N 46°00' W 122°51'0 0.0
2018-Feb-18 05:54N 46°00' W 122°51'0 0.0
2018-Feb-18 05:30N 46°00' W 122°51'0 0.0
2018-Feb-18 04:57N 46°00' W 122°51'0 0.0
2018-Feb-18 04:27N 46°00' W 122°51'0 0.0
2018-Feb-18 03:57N 46°00' W 122°51'0 0.0
2018-Feb-18 03:30N 46°00' W 122°51'0 0.0
2018-Feb-18 02:57N 46°00' W 122°51'0 0.0
2018-Feb-18 02:30N 46°00' W 122°51'0 0.0
2018-Feb-18 02:00N 46°00' W 122°51'0 0.0
2018-Feb-18 01:30N 46°00' W 122°51'0 0.0
2018-Feb-18 00:54N 46°00' W 122°51'0 0.0
2018-Feb-17 23:48N 46°00' W 122°51'0 0.0
2018-Feb-17 23:30N 46°00' W 122°51'0 0.0
2018-Feb-17 22:57N 46°00' W 122°51'0 0.0
2018-Feb-17 22:30N 46°00' W 122°51'0 0.0
2018-Feb-17 21:57N 46°00' W 122°51'0 0.0
2018-Feb-17 21:30N 46°00' W 122°51'0 0.0
2018-Feb-17 21:00N 46°00' W 122°51'0 0.0
2018-Feb-17 20:30N 46°00' W 122°51'0 0.0
2018-Feb-17 20:00N 46°00' W 122°51'0 0.0
2018-Feb-17 19:27N 46°00' W 122°51'0 0.0
2018-Feb-17 18:36N 46°00' W 122°51'0 0.0
2018-Feb-17 18:30N 46°00' W 122°51'0 0.0
2018-Feb-17 17:36N 46°00' W 122°51'0 0.0
2018-Feb-17 17:27N 46°00' W 122°51'0 0.0
2018-Feb-17 16:57N 46°00' W 122°51'0 0.0
2018-Feb-17 16:18N 46°00' W 122°51'0 0.0
2018-Feb-17 16:00N 46°00' W 122°51'0 0.0
2018-Feb-17 15:27N 46°00' W 122°51'0 0.0
2018-Feb-17 15:00N 46°00' W 122°51'0 0.0
2018-Feb-17 14:30N 46°00' W 122°51'0 0.0
2018-Feb-17 14:00N 46°00' W 122°51'0 0.0
2018-Feb-17 13:18N 46°00' W 122°51'5 6.4
2018-Feb-17 12:34N 46°05' W 122°54'613.0
2018-Feb-17 12:05N 46°08' W 123°01'3 3.4
2018-Feb-17 11:07N 46°06' W 122°58'1 1.1
2018-Feb-17 10:38N 46°06' W 122°57'417.5
2018-Feb-17 10:23N 46°03' W 122°53'3 6.2
2018-Feb-17 09:56N 46°00' W 122°51'0 0.0
2018-Feb-17 09:29N 46°00' W 122°51'0 0.0
2018-Feb-17 08:59N 46°00' W 122°51'0 0.0
2018-Feb-17 08:29N 46°00' W 122°51'0 0.0
2018-Feb-17 07:47N 46°00' W 122°51'0 0.0
2018-Feb-17 07:26N 46°00' W 122°51'0 0.0
2018-Feb-17 06:59N 46°00' W 122°51'0 0.0
2018-Feb-17 06:23N 46°00' W 122°51'0 0.0
2018-Feb-17 05:50N 46°00' W 122°51'0 0.0
2018-Feb-17 05:08N 46°00' W 122°51'0 0.0
2018-Feb-17 04:59N 46°00' W 122°51'0 0.0
2018-Feb-17 04:29N 46°00' W 122°51'0 0.0
2018-Feb-17 03:11N 46°00' W 122°51'0 0.0
2018-Feb-17 02:59N 46°00' W 122°51'0 0.0
2018-Feb-17 02:29N 46°00' W 122°51'0 0.0
2018-Feb-17 01:59N 46°00' W 122°51'0 0.0
2018-Feb-17 01:29N 46°00' W 122°51'0 0.0
2018-Feb-17 00:50N 46°00' W 122°51'0 0.0
2018-Feb-17 00:29N 46°00' W 122°51'0 0.0
2018-Feb-16 23:56N 46°00' W 122°51'0 0.0
2018-Feb-16 23:29N 46°00' W 122°51'0 0.0
2018-Feb-16 22:56N 46°00' W 122°51'0 0.0
2018-Feb-16 22:23N 46°00' W 122°51'0 0.0
2018-Feb-16 21:56N 46°00' W 122°51'0 0.0
2018-Feb-16 21:29N 46°00' W 122°51'0 0.0
2018-Feb-16 20:23N 46°00' W 122°51'0 0.0
2018-Feb-16 19:47N 46°00' W 122°51'0 0.0
2018-Feb-16 19:23N 46°00' W 122°51'0 0.0
2018-Feb-16 18:53N 46°00' W 122°51'0 0.0
2018-Feb-16 18:29N 46°00' W 122°51'0 0.0
2018-Feb-16 17:53N 46°00' W 122°51'0 0.0
2018-Feb-16 17:02N 46°00' W 122°51'0 0.0
2018-Feb-16 16:56N 46°00' W 122°51'0 0.0
2018-Feb-16 16:08N 46°00' W 122°51'0 0.0
2018-Feb-16 15:35N 46°00' W 122°51'0 0.0
2018-Feb-16 15:23N 46°00' W 122°51'0 0.0
2018-Feb-16 14:56N 46°00' W 122°51'0 0.0
2018-Feb-16 14:26N 46°00' W 122°51'0 0.0
2018-Feb-16 13:59N 46°00' W 122°51'0 0.0
2018-Feb-16 13:14N 46°00' W 122°51'0 0.0
2018-Feb-16 12:50N 46°00' W 122°51'0 0.0
2018-Feb-16 11:47N 46°00' W 122°51'0 0.0
2018-Feb-16 11:29N 46°00' W 122°51'0 0.0
2018-Feb-16 10:56N 46°00' W 122°51'0 0.0
2018-Feb-16 10:30N 46°00' W 122°51'715.0
2018-Feb-16 10:00N 46°06' W 122°57'0 0.3
2018-Feb-16 09:02N 46°06' W 122°58'0 0.0
2018-Feb-16 08:59N 46°06' W 122°58'5 9.5
2018-Feb-16 08:30N 46°03' W 122°53'3 5.3
2018-Feb-16 07:56N 46°00' W 122°51'0 0.0
2018-Feb-16 07:29N 46°00' W 122°51'0 0.0
2018-Feb-16 06:59N 46°00' W 122°51'0 0.0
2018-Feb-16 06:26N 46°00' W 122°51'0 0.0
2018-Feb-16 05:56N 46°00' W 122°51'0 0.0
2018-Feb-16 05:29N 46°00' W 122°51'0 0.0
2018-Feb-16 04:53N 46°00' W 122°51'0 0.0
2018-Feb-16 04:29N 46°00' W 122°51'0 0.0
2018-Feb-16 03:56N 46°00' W 122°51'0 0.0
2018-Feb-16 03:29N 46°00' W 122°51'0 0.0
2018-Feb-16 02:59N 46°00' W 122°51'0 0.0
2018-Feb-16 02:26N 46°00' W 122°51'0 0.0
2018-Feb-16 01:59N 46°00' W 122°51'0 0.0
2018-Feb-16 01:29N 46°00' W 122°51'0 0.0
2018-Feb-16 00:23N 46°00' W 122°51'0 0.0
2018-Feb-15 23:56N 46°00' W 122°51'0 0.0
2018-Feb-15 23:29N 46°00' W 122°51'0 0.0
2018-Feb-15 22:53N 46°00' W 122°51'0 0.0
2018-Feb-15 22:23N 46°00' W 122°51'0 0.0
2018-Feb-15 21:56N 46°00' W 122°51'0 0.0
2018-Feb-15 21:26N 46°00' W 122°51'0 0.0
2018-Feb-15 20:59N 46°00' W 122°51'0 0.0
2018-Feb-15 20:08N 46°00' W 122°51'0 0.0
2018-Feb-15 19:47N 46°00' W 122°51'0 0.0
2018-Feb-15 19:29N 46°00' W 122°51'0 0.0
2018-Feb-15 18:50N 46°00' W 122°51'0 0.0
2018-Feb-15 18:20N 46°00' W 122°51'0 0.0
2018-Feb-15 17:56N 46°00' W 122°51'0 0.0
2018-Feb-15 17:14N 46°00' W 122°51'0 0.0
2018-Feb-15 16:53N 46°00' W 122°51'0 0.0
2018-Feb-15 16:29N 46°00' W 122°51'0 0.0
2018-Feb-15 15:53N 46°00' W 122°51'0 0.0
2018-Feb-15 15:23N 46°00' W 122°51'0 0.0
2018-Feb-15 14:50N 46°00' W 122°51'0 0.0
2018-Feb-15 14:29N 46°00' W 122°51'0 0.0
2018-Feb-15 13:56N 46°00' W 122°51'0 0.0
2018-Feb-15 13:23N 46°00' W 122°51'0 0.0
2018-Feb-15 12:59N 46°00' W 122°51'0 0.0
2018-Feb-15 12:26N 46°00' W 122°51'0 0.0
2018-Feb-15 11:59N 46°00' W 122°51'0 0.0
2018-Feb-15 10:38N 46°00' W 122°51'0 0.0
2018-Feb-15 10:11N 46°00' W 122°51'0 0.0
2018-Feb-15 09:53N 46°00' W 122°51'0 0.0
2018-Feb-15 09:26N 46°00' W 122°51'0 0.0
2018-Feb-15 08:56N 46°00' W 122°51'0 0.0
2018-Feb-15 08:29N 46°00' W 122°51'0 0.0
2018-Feb-15 07:56N 46°00' W 122°51'0 0.0
2018-Feb-15 07:26N 46°00' W 122°51'0 0.0
2018-Feb-15 06:59N 46°00' W 122°51'0 0.0
2018-Feb-15 06:23N 46°00' W 122°51'0 0.0
2018-Feb-15 05:59N 46°00' W 122°51'0 0.0
2018-Feb-15 05:26N 46°00' W 122°51'0 0.0
2018-Feb-15 04:59N 46°00' W 122°51'0 0.0
2018-Feb-15 04:29N 46°00' W 122°51'0 0.0
2018-Feb-15 03:59N 46°00' W 122°51'  

Dump ship's entire track history